sensor_id;sensor_type;location;lat;lon;timestamp;P1;durP1;ratioP1;P2;durP2;ratioP2
39776;SDS011;25453;48.162;14.510;2023-08-21T00:01:53;5.50;;;3.42;;
39776;SDS011;25453;48.162;14.510;2023-08-21T00:04:20;5.28;;;2.97;;
39776;SDS011;25453;48.162;14.510;2023-08-21T00:06:47;4.50;;;2.75;;
39776;SDS011;25453;48.162;14.510;2023-08-21T00:09:14;4.55;;;2.72;;
39776;SDS011;25453;48.162;14.510;2023-08-21T00:11:41;5.82;;;3.28;;
39776;SDS011;25453;48.162;14.510;2023-08-21T00:14:08;5.95;;;3.30;;
39776;SDS011;25453;48.162;14.510;2023-08-21T00:16:35;6.03;;;3.42;;
39776;SDS011;25453;48.162;14.510;2023-08-21T00:19:03;6.65;;;3.58;;
39776;SDS011;25453;48.162;14.510;2023-08-21T00:21:30;4.18;;;2.78;;
39776;SDS011;25453;48.162;14.510;2023-08-21T00:23:57;5.95;;;3.58;;
39776;SDS011;25453;48.162;14.510;2023-08-21T00:26:24;5.30;;;2.95;;
39776;SDS011;25453;48.162;14.510;2023-08-21T00:28:51;4.68;;;2.65;;
39776;SDS011;25453;48.162;14.510;2023-08-21T00:31:19;5.30;;;3.00;;
39776;SDS011;25453;48.162;14.510;2023-08-21T00:33:46;4.63;;;3.17;;
39776;SDS011;25453;48.162;14.510;2023-08-21T00:36:13;5.25;;;3.22;;
39776;SDS011;25453;48.162;14.510;2023-08-21T00:38:40;5.50;;;2.88;;
39776;SDS011;25453;48.162;14.510;2023-08-21T00:41:07;5.25;;;3.17;;
39776;SDS011;25453;48.162;14.510;2023-08-21T00:43:35;5.68;;;2.58;;
39776;SDS011;25453;48.162;14.510;2023-08-21T00:46:02;4.45;;;3.00;;
39776;SDS011;25453;48.162;14.510;2023-08-21T00:48:29;5.35;;;3.17;;
39776;SDS011;25453;48.162;14.510;2023-08-21T00:50:57;5.05;;;2.85;;
39776;SDS011;25453;48.162;14.510;2023-08-21T00:53:24;6.53;;;3.63;;
39776;SDS011;25453;48.162;14.510;2023-08-21T00:55:52;4.55;;;2.83;;
39776;SDS011;25453;48.162;14.510;2023-08-21T00:58:19;5.32;;;3.45;;
39776;SDS011;25453;48.162;14.510;2023-08-21T01:00:47;5.43;;;3.20;;
39776;SDS011;25453;48.162;14.510;2023-08-21T01:03:16;6.65;;;3.40;;
39776;SDS011;25453;48.162;14.510;2023-08-21T01:05:44;4.80;;;3.08;;
39776;SDS011;25453;48.162;14.510;2023-08-21T01:10:47;5.70;;;3.20;;
39776;SDS011;25453;48.162;14.510;2023-08-21T01:13:19;5.82;;;3.58;;
39776;SDS011;25453;48.162;14.510;2023-08-21T01:16:07;7.03;;;3.38;;
39776;SDS011;25453;48.162;14.510;2023-08-21T01:18:35;6.80;;;3.85;;
39776;SDS011;25453;48.162;14.510;2023-08-21T01:21:03;5.95;;;3.35;;
39776;SDS011;25453;48.162;14.510;2023-08-21T01:23:37;6.38;;;3.58;;
39776;SDS011;25453;48.162;14.510;2023-08-21T01:26:04;6.47;;;3.72;;
39776;SDS011;25453;48.162;14.510;2023-08-21T01:28:32;6.32;;;3.75;;
39776;SDS011;25453;48.162;14.510;2023-08-21T01:33:44;7.00;;;3.85;;
39776;SDS011;25453;48.162;14.510;2023-08-21T01:36:14;6.07;;;3.45;;
39776;SDS011;25453;48.162;14.510;2023-08-21T01:38:41;7.72;;;4.25;;
39776;SDS011;25453;48.162;14.510;2023-08-21T01:41:10;7.20;;;3.92;;
39776;SDS011;25453;48.162;14.510;2023-08-21T01:43:37;6.38;;;3.92;;
39776;SDS011;25453;48.162;14.510;2023-08-21T01:46:05;5.28;;;3.42;;
39776;SDS011;25453;48.162;14.510;2023-08-21T01:48:33;5.63;;;3.53;;
39776;SDS011;25453;48.162;14.510;2023-08-21T01:51:01;6.25;;;3.95;;
39776;SDS011;25453;48.162;14.510;2023-08-21T01:53:29;5.45;;;3.55;;
39776;SDS011;25453;48.162;14.510;2023-08-21T01:55:56;6.30;;;3.83;;
39776;SDS011;25453;48.162;14.510;2023-08-21T01:58:23;6.00;;;3.20;;
39776;SDS011;25453;48.162;14.510;2023-08-21T02:00:50;6.00;;;3.50;;
39776;SDS011;25453;48.162;14.510;2023-08-21T02:03:17;6.47;;;3.58;;
39776;SDS011;25453;48.162;14.510;2023-08-21T02:05:45;7.25;;;3.97;;
39776;SDS011;25453;48.162;14.510;2023-08-21T02:08:12;5.03;;;3.20;;
39776;SDS011;25453;48.162;14.510;2023-08-21T02:10:52;5.97;;;3.88;;
39776;SDS011;25453;48.162;14.510;2023-08-21T02:13:19;6.72;;;3.55;;
39776;SDS011;25453;48.162;14.510;2023-08-21T02:15:47;7.50;;;3.90;;
39776;SDS011;25453;48.162;14.510;2023-08-21T02:18:14;5.22;;;3.55;;
39776;SDS011;25453;48.162;14.510;2023-08-21T02:20:41;7.55;;;4.00;;
39776;SDS011;25453;48.162;14.510;2023-08-21T02:23:08;5.07;;;3.15;;
39776;SDS011;25453;48.162;14.510;2023-08-21T02:25:35;5.22;;;3.10;;
39776;SDS011;25453;48.162;14.510;2023-08-21T02:28:03;6.35;;;3.45;;
39776;SDS011;25453;48.162;14.510;2023-08-21T02:30:30;5.43;;;3.00;;
39776;SDS011;25453;48.162;14.510;2023-08-21T02:32:57;5.30;;;3.25;;
39776;SDS011;25453;48.162;14.510;2023-08-21T02:35:25;6.10;;;3.60;;
39776;SDS011;25453;48.162;14.510;2023-08-21T02:37:52;4.88;;;3.08;;
39776;SDS011;25453;48.162;14.510;2023-08-21T02:40:19;5.93;;;3.45;;
39776;SDS011;25453;48.162;14.510;2023-08-21T02:42:47;4.90;;;3.05;;
39776;SDS011;25453;48.162;14.510;2023-08-21T02:45:14;6.05;;;3.40;;
39776;SDS011;25453;48.162;14.510;2023-08-21T02:47:41;5.65;;;3.15;;
39776;SDS011;25453;48.162;14.510;2023-08-21T02:50:09;5.35;;;3.33;;
39776;SDS011;25453;48.162;14.510;2023-08-21T02:52:37;6.20;;;3.58;;
39776;SDS011;25453;48.162;14.510;2023-08-21T02:55:05;6.13;;;3.85;;
39776;SDS011;25453;48.162;14.510;2023-08-21T02:57:33;6.05;;;3.65;;
39776;SDS011;25453;48.162;14.510;2023-08-21T03:00:00;7.25;;;3.45;;
39776;SDS011;25453;48.162;14.510;2023-08-21T03:02:27;5.65;;;3.53;;
39776;SDS011;25453;48.162;14.510;2023-08-21T03:04:55;5.80;;;3.42;;
39776;SDS011;25453;48.162;14.510;2023-08-21T03:07:22;5.25;;;3.22;;
39776;SDS011;25453;48.162;14.510;2023-08-21T03:09:49;5.20;;;3.42;;
39776;SDS011;25453;48.162;14.510;2023-08-21T03:12:17;5.40;;;3.10;;
39776;SDS011;25453;48.162;14.510;2023-08-21T03:14:45;5.35;;;3.10;;
39776;SDS011;25453;48.162;14.510;2023-08-21T03:17:12;5.30;;;3.40;;
39776;SDS011;25453;48.162;14.510;2023-08-21T03:19:40;6.32;;;3.63;;
39776;SDS011;25453;48.162;14.510;2023-08-21T03:22:07;5.28;;;3.72;;
39776;SDS011;25453;48.162;14.510;2023-08-21T03:24:34;5.97;;;3.60;;
39776;SDS011;25453;48.162;14.510;2023-08-21T03:27:01;5.32;;;3.42;;
39776;SDS011;25453;48.162;14.510;2023-08-21T03:29:29;6.72;;;4.00;;
39776;SDS011;25453;48.162;14.510;2023-08-21T03:31:57;5.55;;;3.55;;
39776;SDS011;25453;48.162;14.510;2023-08-21T03:34:24;6.40;;;4.18;;
39776;SDS011;25453;48.162;14.510;2023-08-21T03:36:51;5.60;;;3.70;;
39776;SDS011;25453;48.162;14.510;2023-08-21T03:39:18;6.57;;;4.32;;
39776;SDS011;25453;48.162;14.510;2023-08-21T03:41:45;7.13;;;3.22;;
39776;SDS011;25453;48.162;14.510;2023-08-21T03:44:13;5.15;;;3.13;;
39776;SDS011;25453;48.162;14.510;2023-08-21T03:46:40;7.72;;;4.38;;
39776;SDS011;25453;48.162;14.510;2023-08-21T03:49:07;5.72;;;3.70;;
39776;SDS011;25453;48.162;14.510;2023-08-21T03:51:34;6.40;;;3.55;;
39776;SDS011;25453;48.162;14.510;2023-08-21T03:54:01;6.20;;;3.65;;
39776;SDS011;25453;48.162;14.510;2023-08-21T03:56:29;7.20;;;3.90;;
39776;SDS011;25453;48.162;14.510;2023-08-21T03:58:56;6.40;;;3.72;;
39776;SDS011;25453;48.162;14.510;2023-08-21T04:01:23;5.28;;;3.40;;
39776;SDS011;25453;48.162;14.510;2023-08-21T04:03:51;5.32;;;3.13;;
39776;SDS011;25453;48.162;14.510;2023-08-21T04:06:18;5.93;;;3.38;;
39776;SDS011;25453;48.162;14.510;2023-08-21T04:08:45;8.50;;;4.18;;
39776;SDS011;25453;48.162;14.510;2023-08-21T04:11:12;6.03;;;3.45;;
39776;SDS011;25453;48.162;14.510;2023-08-21T04:13:39;6.30;;;3.40;;
39776;SDS011;25453;48.162;14.510;2023-08-21T04:16:06;5.80;;;3.42;;
39776;SDS011;25453;48.162;14.510;2023-08-21T04:18:35;8.40;;;3.95;;
39776;SDS011;25453;48.162;14.510;2023-08-21T04:21:07;6.32;;;3.92;;
39776;SDS011;25453;48.162;14.510;2023-08-21T04:23:35;9.48;;;3.70;;
39776;SDS011;25453;48.162;14.510;2023-08-21T04:26:03;6.20;;;3.78;;
39776;SDS011;25453;48.162;14.510;2023-08-21T04:28:31;6.00;;;3.88;;
39776;SDS011;25453;48.162;14.510;2023-08-21T04:31:00;6.55;;;3.85;;
39776;SDS011;25453;48.162;14.510;2023-08-21T04:33:30;7.00;;;3.90;;
39776;SDS011;25453;48.162;14.510;2023-08-21T04:35:57;6.32;;;3.83;;
39776;SDS011;25453;48.162;14.510;2023-08-21T04:38:24;5.53;;;3.28;;
39776;SDS011;25453;48.162;14.510;2023-08-21T04:40:52;5.57;;;3.17;;
39776;SDS011;25453;48.162;14.510;2023-08-21T04:43:19;6.70;;;3.50;;
39776;SDS011;25453;48.162;14.510;2023-08-21T04:45:49;6.22;;;3.42;;
39776;SDS011;25453;48.162;14.510;2023-08-21T04:48:19;4.65;;;3.35;;
39776;SDS011;25453;48.162;14.510;2023-08-21T04:50:47;6.07;;;3.63;;
39776;SDS011;25453;48.162;14.510;2023-08-21T04:53:14;5.75;;;3.72;;
39776;SDS011;25453;48.162;14.510;2023-08-21T04:55:42;5.45;;;3.45;;
39776;SDS011;25453;48.162;14.510;2023-08-21T04:58:09;4.93;;;3.20;;
39776;SDS011;25453;48.162;14.510;2023-08-21T05:00:37;5.57;;;3.30;;
39776;SDS011;25453;48.162;14.510;2023-08-21T05:03:05;5.07;;;3.17;;
39776;SDS011;25453;48.162;14.510;2023-08-21T05:05:33;5.82;;;3.28;;
39776;SDS011;25453;48.162;14.510;2023-08-21T05:08:00;5.82;;;2.97;;
39776;SDS011;25453;48.162;14.510;2023-08-21T05:10:27;5.88;;;3.83;;
39776;SDS011;25453;48.162;14.510;2023-08-21T05:12:56;5.57;;;3.13;;
39776;SDS011;25453;48.162;14.510;2023-08-21T05:15:24;5.22;;;3.17;;
39776;SDS011;25453;48.162;14.510;2023-08-21T05:17:51;5.57;;;3.22;;
39776;SDS011;25453;48.162;14.510;2023-08-21T05:20:18;6.05;;;3.58;;
39776;SDS011;25453;48.162;14.510;2023-08-21T05:22:45;5.80;;;3.35;;
39776;SDS011;25453;48.162;14.510;2023-08-21T05:25:13;4.72;;;2.90;;
39776;SDS011;25453;48.162;14.510;2023-08-21T05:27:41;5.60;;;3.47;;
39776;SDS011;25453;48.162;14.510;2023-08-21T05:30:09;6.05;;;3.05;;
39776;SDS011;25453;48.162;14.510;2023-08-21T05:32:41;6.05;;;3.25;;
39776;SDS011;25453;48.162;14.510;2023-08-21T05:35:08;5.05;;;3.08;;
39776;SDS011;25453;48.162;14.510;2023-08-21T05:37:35;4.43;;;2.65;;
39776;SDS011;25453;48.162;14.510;2023-08-21T05:40:03;4.75;;;2.70;;
39776;SDS011;25453;48.162;14.510;2023-08-21T05:42:31;5.93;;;2.83;;
39776;SDS011;25453;48.162;14.510;2023-08-21T05:44:59;5.32;;;2.92;;
39776;SDS011;25453;48.162;14.510;2023-08-21T05:47:26;4.50;;;2.83;;
39776;SDS011;25453;48.162;14.510;2023-08-21T05:49:53;3.45;;;2.30;;
39776;SDS011;25453;48.162;14.510;2023-08-21T05:52:20;5.05;;;2.80;;
39776;SDS011;25453;48.162;14.510;2023-08-21T05:54:48;4.70;;;3.25;;
39776;SDS011;25453;48.162;14.510;2023-08-21T05:57:16;4.90;;;2.25;;
39776;SDS011;25453;48.162;14.510;2023-08-21T05:59:44;3.92;;;2.30;;
39776;SDS011;25453;48.162;14.510;2023-08-21T06:02:12;4.53;;;2.47;;
39776;SDS011;25453;48.162;14.510;2023-08-21T06:04:41;3.47;;;2.40;;
39776;SDS011;25453;48.162;14.510;2023-08-21T06:07:09;3.67;;;2.22;;
39776;SDS011;25453;48.162;14.510;2023-08-21T06:09:36;6.00;;;3.28;;
39776;SDS011;25453;48.162;14.510;2023-08-21T06:12:07;4.82;;;2.60;;
39776;SDS011;25453;48.162;14.510;2023-08-21T06:14:35;5.07;;;2.42;;
39776;SDS011;25453;48.162;14.510;2023-08-21T06:17:03;4.68;;;2.65;;
39776;SDS011;25453;48.162;14.510;2023-08-21T06:19:34;5.03;;;2.58;;
39776;SDS011;25453;48.162;14.510;2023-08-21T06:22:01;6.05;;;3.30;;
39776;SDS011;25453;48.162;14.510;2023-08-21T06:24:28;5.93;;;3.45;;
39776;SDS011;25453;48.162;14.510;2023-08-21T06:26:55;5.60;;;3.33;;
39776;SDS011;25453;48.162;14.510;2023-08-21T06:29:23;6.25;;;3.22;;
39776;SDS011;25453;48.162;14.510;2023-08-21T06:31:51;6.20;;;3.03;;
39776;SDS011;25453;48.162;14.510;2023-08-21T06:34:18;5.78;;;2.92;;
39776;SDS011;25453;48.162;14.510;2023-08-21T06:36:45;5.10;;;2.72;;
39776;SDS011;25453;48.162;14.510;2023-08-21T06:39:12;5.00;;;2.85;;
39776;SDS011;25453;48.162;14.510;2023-08-21T06:41:39;5.00;;;2.75;;
39776;SDS011;25453;48.162;14.510;2023-08-21T06:44:06;4.75;;;3.03;;
39776;SDS011;25453;48.162;14.510;2023-08-21T06:46:34;4.90;;;3.05;;
39776;SDS011;25453;48.162;14.510;2023-08-21T06:49:03;5.43;;;2.67;;
39776;SDS011;25453;48.162;14.510;2023-08-21T06:51:30;4.65;;;2.55;;
39776;SDS011;25453;48.162;14.510;2023-08-21T06:53:57;5.50;;;3.03;;
39776;SDS011;25453;48.162;14.510;2023-08-21T06:56:24;3.70;;;2.20;;
39776;SDS011;25453;48.162;14.510;2023-08-21T06:58:51;3.42;;;2.00;;
39776;SDS011;25453;48.162;14.510;2023-08-21T07:01:21;4.18;;;2.10;;
39776;SDS011;25453;48.162;14.510;2023-08-21T07:03:48;4.15;;;2.30;;
39776;SDS011;25453;48.162;14.510;2023-08-21T07:06:16;4.75;;;2.78;;
39776;SDS011;25453;48.162;14.510;2023-08-21T07:08:43;4.95;;;2.15;;
39776;SDS011;25453;48.162;14.510;2023-08-21T07:11:10;4.78;;;2.83;;
39776;SDS011;25453;48.162;14.510;2023-08-21T07:13:41;5.50;;;2.70;;
39776;SDS011;25453;48.162;14.510;2023-08-21T07:16:08;6.10;;;3.47;;
39776;SDS011;25453;48.162;14.510;2023-08-21T07:18:35;6.35;;;3.60;;
39776;SDS011;25453;48.162;14.510;2023-08-21T07:21:02;7.40;;;3.70;;
39776;SDS011;25453;48.162;14.510;2023-08-21T07:26:14;6.25;;;3.60;;
39776;SDS011;25453;48.162;14.510;2023-08-21T07:28:42;5.88;;;3.70;;
39776;SDS011;25453;48.162;14.510;2023-08-21T07:31:09;7.70;;;3.72;;
39776;SDS011;25453;48.162;14.510;2023-08-21T07:33:36;7.45;;;4.65;;
39776;SDS011;25453;48.162;14.510;2023-08-21T07:36:03;7.38;;;4.05;;
39776;SDS011;25453;48.162;14.510;2023-08-21T07:38:31;7.65;;;4.00;;
39776;SDS011;25453;48.162;14.510;2023-08-21T07:41:03;6.57;;;3.95;;
39776;SDS011;25453;48.162;14.510;2023-08-21T07:43:31;7.35;;;3.90;;
39776;SDS011;25453;48.162;14.510;2023-08-21T07:46:01;6.88;;;3.55;;
39776;SDS011;25453;48.162;14.510;2023-08-21T07:48:32;5.47;;;3.20;;
39776;SDS011;25453;48.162;14.510;2023-08-21T07:51:00;6.25;;;3.45;;
39776;SDS011;25453;48.162;14.510;2023-08-21T07:53:27;5.68;;;3.75;;
39776;SDS011;25453;48.162;14.510;2023-08-21T07:55:56;5.75;;;3.60;;
39776;SDS011;25453;48.162;14.510;2023-08-21T07:58:24;5.10;;;3.17;;
39776;SDS011;25453;48.162;14.510;2023-08-21T08:00:52;4.70;;;2.83;;
39776;SDS011;25453;48.162;14.510;2023-08-21T08:03:19;6.05;;;3.55;;
39776;SDS011;25453;48.162;14.510;2023-08-21T08:05:46;5.88;;;3.28;;
39776;SDS011;25453;48.162;14.510;2023-08-21T08:08:21;4.70;;;2.80;;
39776;SDS011;25453;48.162;14.510;2023-08-21T08:10:48;5.03;;;2.90;;
39776;SDS011;25453;48.162;14.510;2023-08-21T08:13:15;4.75;;;2.92;;
39776;SDS011;25453;48.162;14.510;2023-08-21T08:15:43;3.45;;;2.33;;
39776;SDS011;25453;48.162;14.510;2023-08-21T08:18:13;7.93;;;4.63;;
39776;SDS011;25453;48.162;14.510;2023-08-21T08:20:40;7.82;;;4.80;;
39776;SDS011;25453;48.162;14.510;2023-08-21T08:23:07;7.57;;;4.72;;
39776;SDS011;25453;48.162;14.510;2023-08-21T08:25:35;7.25;;;5.15;;
39776;SDS011;25453;48.162;14.510;2023-08-21T08:28:02;8.77;;;5.72;;
39776;SDS011;25453;48.162;14.510;2023-08-21T08:30:29;9.30;;;5.22;;
39776;SDS011;25453;48.162;14.510;2023-08-21T08:32:56;7.85;;;5.57;;
39776;SDS011;25453;48.162;14.510;2023-08-21T08:35:24;7.55;;;4.97;;
39776;SDS011;25453;48.162;14.510;2023-08-21T08:37:51;9.43;;;6.05;;
39776;SDS011;25453;48.162;14.510;2023-08-21T08:40:18;8.50;;;5.20;;
39776;SDS011;25453;48.162;14.510;2023-08-21T08:42:45;8.90;;;4.90;;
39776;SDS011;25453;48.162;14.510;2023-08-21T08:45:14;7.85;;;4.95;;
39776;SDS011;25453;48.162;14.510;2023-08-21T08:47:41;7.93;;;4.38;;
39776;SDS011;25453;48.162;14.510;2023-08-21T08:50:09;7.38;;;4.72;;
39776;SDS011;25453;48.162;14.510;2023-08-21T08:52:37;7.47;;;4.70;;
39776;SDS011;25453;48.162;14.510;2023-08-21T08:55:07;8.77;;;5.35;;
39776;SDS011;25453;48.162;14.510;2023-08-21T08:57:34;6.60;;;4.13;;
39776;SDS011;25453;48.162;14.510;2023-08-21T09:00:04;6.57;;;3.95;;
39776;SDS011;25453;48.162;14.510;2023-08-21T09:02:32;6.07;;;3.85;;
39776;SDS011;25453;48.162;14.510;2023-08-21T09:05:00;8.05;;;4.25;;
39776;SDS011;25453;48.162;14.510;2023-08-21T09:07:28;5.93;;;3.90;;
39776;SDS011;25453;48.162;14.510;2023-08-21T09:09:55;5.20;;;3.33;;
39776;SDS011;25453;48.162;14.510;2023-08-21T09:12:22;6.43;;;3.72;;
39776;SDS011;25453;48.162;14.510;2023-08-21T09:14:49;6.10;;;3.92;;
39776;SDS011;25453;48.162;14.510;2023-08-21T09:17:17;6.22;;;3.97;;
39776;SDS011;25453;48.162;14.510;2023-08-21T09:19:44;6.40;;;3.80;;
39776;SDS011;25453;48.162;14.510;2023-08-21T09:24:59;5.72;;;3.22;;
39776;SDS011;25453;48.162;14.510;2023-08-21T09:27:33;5.38;;;3.08;;
39776;SDS011;25453;48.162;14.510;2023-08-21T09:30:05;7.78;;;3.70;;
39776;SDS011;25453;48.162;14.510;2023-08-21T09:32:56;6.43;;;3.95;;
39776;SDS011;25453;48.162;14.510;2023-08-21T09:35:32;5.75;;;3.50;;
39776;SDS011;25453;48.162;14.510;2023-08-21T09:38:00;5.32;;;3.08;;
39776;SDS011;25453;48.162;14.510;2023-08-21T09:40:27;6.65;;;3.92;;
39776;SDS011;25453;48.162;14.510;2023-08-21T09:42:57;4.90;;;2.88;;
39776;SDS011;25453;48.162;14.510;2023-08-21T09:45:34;5.28;;;3.10;;
39776;SDS011;25453;48.162;14.510;2023-08-21T09:48:05;5.93;;;3.58;;
39776;SDS011;25453;48.162;14.510;2023-08-21T09:50:36;6.13;;;4.10;;
39776;SDS011;25453;48.162;14.510;2023-08-21T09:53:06;4.60;;;2.97;;
39776;SDS011;25453;48.162;14.510;2023-08-21T09:55:34;5.57;;;3.35;;
39776;SDS011;25453;48.162;14.510;2023-08-21T09:58:02;6.47;;;3.40;;
39776;SDS011;25453;48.162;14.510;2023-08-21T10:00:30;5.80;;;3.15;;
39776;SDS011;25453;48.162;14.510;2023-08-21T10:03:00;5.28;;;3.33;;
39776;SDS011;25453;48.162;14.510;2023-08-21T10:05:31;5.20;;;3.08;;
39776;SDS011;25453;48.162;14.510;2023-08-21T10:08:01;4.45;;;2.90;;
39776;SDS011;25453;48.162;14.510;2023-08-21T10:10:30;5.82;;;3.22;;
39776;SDS011;25453;48.162;14.510;2023-08-21T10:13:00;4.60;;;2.60;;
39776;SDS011;25453;48.162;14.510;2023-08-21T10:15:28;4.78;;;3.08;;
39776;SDS011;25453;48.162;14.510;2023-08-21T10:17:57;5.20;;;3.33;;
39776;SDS011;25453;48.162;14.510;2023-08-21T10:20:25;5.63;;;3.83;;
39776;SDS011;25453;48.162;14.510;2023-08-21T10:22:53;5.50;;;3.70;;
39776;SDS011;25453;48.162;14.510;2023-08-21T10:25:23;6.13;;;3.63;;
39776;SDS011;25453;48.162;14.510;2023-08-21T10:27:56;5.47;;;3.78;;
39776;SDS011;25453;48.162;14.510;2023-08-21T10:30:26;5.07;;;2.80;;
39776;SDS011;25453;48.162;14.510;2023-08-21T10:32:55;5.65;;;3.40;;
39776;SDS011;25453;48.162;14.510;2023-08-21T10:35:25;4.25;;;3.03;;
39776;SDS011;25453;48.162;14.510;2023-08-21T10:38:09;4.93;;;3.10;;
39776;SDS011;25453;48.162;14.510;2023-08-21T10:43:37;5.38;;;3.38;;
39776;SDS011;25453;48.162;14.510;2023-08-21T10:46:06;5.38;;;3.40;;
39776;SDS011;25453;48.162;14.510;2023-08-21T10:48:35;4.60;;;2.95;;
39776;SDS011;25453;48.162;14.510;2023-08-21T10:51:04;5.10;;;2.88;;
39776;SDS011;25453;48.162;14.510;2023-08-21T10:53:33;4.78;;;2.60;;
39776;SDS011;25453;48.162;14.510;2023-08-21T10:56:01;4.55;;;2.85;;
39776;SDS011;25453;48.162;14.510;2023-08-21T10:58:41;5.75;;;2.70;;
39776;SDS011;25453;48.162;14.510;2023-08-21T11:01:08;5.93;;;4.03;;
39776;SDS011;25453;48.162;14.510;2023-08-21T11:03:39;6.10;;;4.30;;
39776;SDS011;25453;48.162;14.510;2023-08-21T11:06:08;8.63;;;4.80;;
39776;SDS011;25453;48.162;14.510;2023-08-21T11:08:36;7.63;;;4.88;;
39776;SDS011;25453;48.162;14.510;2023-08-21T11:11:04;6.47;;;4.47;;
39776;SDS011;25453;48.162;14.510;2023-08-21T11:13:32;5.63;;;3.83;;
39776;SDS011;25453;48.162;14.510;2023-08-21T11:16:05;5.15;;;3.45;;
39776;SDS011;25453;48.162;14.510;2023-08-21T11:18:33;6.82;;;5.20;;
39776;SDS011;25453;48.162;14.510;2023-08-21T11:23:41;6.53;;;4.40;;
39776;SDS011;25453;48.162;14.510;2023-08-21T11:26:10;7.00;;;4.90;;
39776;SDS011;25453;48.162;14.510;2023-08-21T11:28:47;6.78;;;5.05;;
39776;SDS011;25453;48.162;14.510;2023-08-21T11:31:15;5.00;;;3.60;;
39776;SDS011;25453;48.162;14.510;2023-08-21T11:33:48;5.63;;;3.60;;
39776;SDS011;25453;48.162;14.510;2023-08-21T11:36:16;4.55;;;3.50;;
39776;SDS011;25453;48.162;14.510;2023-08-21T11:38:57;4.82;;;3.08;;
39776;SDS011;25453;48.162;14.510;2023-08-21T11:41:26;4.70;;;3.05;;
39776;SDS011;25453;48.162;14.510;2023-08-21T11:43:57;5.25;;;3.17;;
39776;SDS011;25453;48.162;14.510;2023-08-21T11:46:30;5.65;;;3.78;;
39776;SDS011;25453;48.162;14.510;2023-08-21T11:48:57;4.95;;;3.15;;
39776;SDS011;25453;48.162;14.510;2023-08-21T11:51:27;4.57;;;3.05;;
39776;SDS011;25453;48.162;14.510;2023-08-21T11:53:54;5.07;;;3.45;;
39776;SDS011;25453;48.162;14.510;2023-08-21T11:56:21;4.97;;;3.17;;
39776;SDS011;25453;48.162;14.510;2023-08-21T12:01:22;8.05;;;3.47;;
39776;SDS011;25453;48.162;14.510;2023-08-21T12:03:49;5.18;;;3.45;;
39776;SDS011;25453;48.162;14.510;2023-08-21T12:06:22;6.10;;;3.72;;
39776;SDS011;25453;48.162;14.510;2023-08-21T12:08:52;4.90;;;3.08;;
39776;SDS011;25453;48.162;14.510;2023-08-21T12:11:19;4.05;;;3.03;;
39776;SDS011;25453;48.162;14.510;2023-08-21T12:13:47;5.22;;;3.63;;
39776;SDS011;25453;48.162;14.510;2023-08-21T12:16:14;6.57;;;3.88;;
39776;SDS011;25453;48.162;14.510;2023-08-21T12:18:42;6.38;;;4.18;;
39776;SDS011;25453;48.162;14.510;2023-08-21T12:21:09;6.30;;;3.83;;
39776;SDS011;25453;48.162;14.510;2023-08-21T12:23:36;6.00;;;3.90;;
39776;SDS011;25453;48.162;14.510;2023-08-21T12:26:03;4.25;;;3.15;;
39776;SDS011;25453;48.162;14.510;2023-08-21T12:28:30;5.18;;;3.38;;
39776;SDS011;25453;48.162;14.510;2023-08-21T12:30:57;4.35;;;2.85;;
39776;SDS011;25453;48.162;14.510;2023-08-21T12:33:24;4.40;;;2.83;;
39776;SDS011;25453;48.162;14.510;2023-08-21T12:35:52;4.03;;;2.60;;
39776;SDS011;25453;48.162;14.510;2023-08-21T12:38:20;4.53;;;2.70;;
39776;SDS011;25453;48.162;14.510;2023-08-21T12:40:47;4.25;;;2.65;;
39776;SDS011;25453;48.162;14.510;2023-08-21T12:43:14;4.43;;;2.67;;
39776;SDS011;25453;48.162;14.510;2023-08-21T12:45:42;4.40;;;2.20;;
39776;SDS011;25453;48.162;14.510;2023-08-21T12:48:10;3.50;;;2.05;;
39776;SDS011;25453;48.162;14.510;2023-08-21T12:50:37;3.42;;;2.03;;
39776;SDS011;25453;48.162;14.510;2023-08-21T12:53:05;5.57;;;2.90;;
39776;SDS011;25453;48.162;14.510;2023-08-21T12:55:32;8.02;;;3.53;;
39776;SDS011;25453;48.162;14.510;2023-08-21T12:57:59;5.47;;;3.78;;
39776;SDS011;25453;48.162;14.510;2023-08-21T13:00:27;5.53;;;3.50;;
39776;SDS011;25453;48.162;14.510;2023-08-21T13:02:54;4.90;;;3.08;;
39776;SDS011;25453;48.162;14.510;2023-08-21T13:05:21;5.50;;;3.70;;
39776;SDS011;25453;48.162;14.510;2023-08-21T13:07:48;4.68;;;3.10;;
39776;SDS011;25453;48.162;14.510;2023-08-21T13:10:15;5.90;;;3.50;;
39776;SDS011;25453;48.162;14.510;2023-08-21T13:12:43;4.15;;;2.70;;
39776;SDS011;25453;48.162;14.510;2023-08-21T13:15:10;3.90;;;2.60;;
39776;SDS011;25453;48.162;14.510;2023-08-21T13:17:37;4.60;;;2.80;;
39776;SDS011;25453;48.162;14.510;2023-08-21T13:20:05;3.22;;;2.15;;
39776;SDS011;25453;48.162;14.510;2023-08-21T13:22:48;3.60;;;2.35;;
39776;SDS011;25453;48.162;14.510;2023-08-21T13:25:19;4.95;;;2.45;;
39776;SDS011;25453;48.162;14.510;2023-08-21T13:27:51;7.30;;;2.28;;
39776;SDS011;25453;48.162;14.510;2023-08-21T13:30:18;3.42;;;2.03;;
39776;SDS011;25453;48.162;14.510;2023-08-21T13:32:47;3.08;;;1.85;;
39776;SDS011;25453;48.162;14.510;2023-08-21T13:35:14;3.25;;;1.95;;
39776;SDS011;25453;48.162;14.510;2023-08-21T13:37:41;2.22;;;1.52;;
39776;SDS011;25453;48.162;14.510;2023-08-21T13:40:09;3.08;;;2.08;;
39776;SDS011;25453;48.162;14.510;2023-08-21T13:42:41;3.22;;;1.77;;
39776;SDS011;25453;48.162;14.510;2023-08-21T13:45:09;2.95;;;1.70;;
39776;SDS011;25453;48.162;14.510;2023-08-21T13:47:39;2.42;;;1.63;;
39776;SDS011;25453;48.162;14.510;2023-08-21T13:50:08;3.15;;;1.70;;
39776;SDS011;25453;48.162;14.510;2023-08-21T13:52:37;2.75;;;1.77;;
39776;SDS011;25453;48.162;14.510;2023-08-21T13:55:06;3.50;;;1.92;;
39776;SDS011;25453;48.162;14.510;2023-08-21T13:57:35;3.08;;;1.73;;
39776;SDS011;25453;48.162;14.510;2023-08-21T14:00:04;2.95;;;1.65;;
39776;SDS011;25453;48.162;14.510;2023-08-21T14:02:39;2.78;;;1.48;;
39776;SDS011;25453;48.162;14.510;2023-08-21T14:05:08;2.50;;;1.40;;
39776;SDS011;25453;48.162;14.510;2023-08-21T14:07:37;2.58;;;1.42;;
39776;SDS011;25453;48.162;14.510;2023-08-21T14:10:07;2.38;;;1.50;;
39776;SDS011;25453;48.162;14.510;2023-08-21T14:12:34;1.92;;;1.13;;
39776;SDS011;25453;48.162;14.510;2023-08-21T14:15:06;1.60;;;0.98;;
39776;SDS011;25453;48.162;14.510;2023-08-21T14:17:33;1.58;;;1.23;;
39776;SDS011;25453;48.162;14.510;2023-08-21T14:20:00;1.90;;;1.10;;
39776;SDS011;25453;48.162;14.510;2023-08-21T14:22:28;2.33;;;1.30;;
39776;SDS011;25453;48.162;14.510;2023-08-21T14:24:56;3.05;;;1.65;;
39776;SDS011;25453;48.162;14.510;2023-08-21T14:27:23;1.73;;;0.98;;
39776;SDS011;25453;48.162;14.510;2023-08-21T14:29:50;2.47;;;1.20;;
39776;SDS011;25453;48.162;14.510;2023-08-21T14:32:17;1.90;;;1.20;;
39776;SDS011;25453;48.162;14.510;2023-08-21T14:34:44;2.72;;;1.65;;
39776;SDS011;25453;48.162;14.510;2023-08-21T14:37:13;3.13;;;1.65;;
39776;SDS011;25453;48.162;14.510;2023-08-21T14:39:42;2.63;;;1.48;;
39776;SDS011;25453;48.162;14.510;2023-08-21T14:42:10;2.47;;;1.30;;
39776;SDS011;25453;48.162;14.510;2023-08-21T14:44:37;2.63;;;1.50;;
39776;SDS011;25453;48.162;14.510;2023-08-21T14:47:05;2.55;;;1.60;;
39776;SDS011;25453;48.162;14.510;2023-08-21T14:49:34;2.17;;;1.55;;
39776;SDS011;25453;48.162;14.510;2023-08-21T14:52:01;2.30;;;1.50;;
39776;SDS011;25453;48.162;14.510;2023-08-21T14:54:29;2.80;;;1.50;;
39776;SDS011;25453;48.162;14.510;2023-08-21T14:56:56;3.15;;;1.73;;
39776;SDS011;25453;48.162;14.510;2023-08-21T14:59:23;2.22;;;1.50;;